Time;durP1;ratioP1;P1;durP2;ratioP2;P2;SDS_P1;SDS_P2;PMS_P1;PMS_P2;Temp;Humidity;BMP_temperature;BMP_pressure;BME280_temperature;BME280_humidity;BME280_pressure;Samples;Min_cycle;Max_cycle;Signal;HPM_P1;HPM_P2
2021/11/10 00:00:11;;;;;;;;;;;;;;;;;;346116;28;981;-75
2021/11/10 00:00:25;;;;;;;;;;;;;;;;;;345925;28;1203;-73
2021/11/10 00:00:36;;;;;;;;;;;;;;;;;;345969;28;798;-72
2021/11/10 00:00:47;;;;;;;;;;;;;;;;;;345958;28;976;-73
2021/11/10 00:00:57;;;;;;;;;;;;;;;;;;344605;28;918;-76
2021/11/10 00:01:07;;;;;;;;;;;;;;;;;;344640;28;906;-76
2021/11/10 00:01:18;;;;;;;;;;;;;;;;;;344520;28;925;-75
2021/11/10 00:01:28;;;;;;;;;;;;;;;;;;344279;28;1012;-75
2021/11/10 00:01:38;;;;;;;;;;;;;;;;;;344550;28;791;-73
2021/11/10 00:01:52;;;;;;;;;;;;;;;;;;341872;28;1287;-73
2021/11/10 00:02:02;;;;;;;;;;;;;;;;;;341954;29;935;-74
2021/11/10 00:02:13;;;;;;;;;;;;;;;;;;342000;29;871;-74
2021/11/10 00:02:23;;;;;;;;;;;;;;;;;;341950;29;1044;-73
2021/11/10 00:02:33;;;;;;;;;;;;;;;;;;341945;29;962;-74
2021/11/10 00:02:44;;;;;;;;;;;;;;;;;;343181;28;1162;-74
2021/11/10 00:02:54;;;;;;;;;;;;;;;;;;344244;28;1361;-76
2021/11/10 00:03:04;;;;;;;;;;;;;;;;;;344510;28;1008;-73
2021/11/10 00:03:15;;;;;;;;;;;;;;;;;;344522;28;775;-75
2021/11/10 00:03:25;;;;;;;;;;;;;;;;;;344560;28;1025;-73
2021/11/10 00:03:35;;;;;;;;;;;;;;;;;;344610;28;1036;-74
2021/11/10 00:03:46;;;;;;;;;;;;;;;;;;343954;28;1195;-73
2021/11/10 00:03:56;;;;;;;;;;;;;;;;;;344610;28;803;-76
2021/11/10 00:04:07;;;;;;;;;;;;;;;;;;343175;28;1523;-75
2021/11/10 00:04:21;;;;;;;;;;;;;;;;;;341925;28;1480;-75
2021/11/10 00:04:31;;;;;;;;;;;;;;;;;;341980;29;973;-74
2021/11/10 00:04:42;;;;;;;;;;;;;;;;;;341991;29;961;-75
2021/11/10 00:04:52;;;;;;;;;;;;;;;;;;341004;29;978;-76
2021/11/10 00:05:03;;;;;;;;;;;;;;;;;;341550;29;899;-74
2021/11/10 00:05:15;;;;;;;;;;;;;;;;;;341956;29;914;-77
2021/11/10 00:05:25;;;;;;;;;;;;;;;;;;341904;29;973;-77
2021/11/10 00:05:36;;;;;;;;;;;;;;;;;;343169;28;1476;-77
2021/11/10 00:06:12;;;;;;;;;;;;;;;;;;345184;28;929;-76
2021/11/10 00:06:23;;;;;;;;;;;;;;;;;;345955;28;1067;-75
2021/11/10 00:06:33;;;;;;;;;;;;;;;;;;345968;28;795;-77
2021/11/10 00:06:44;;;;;;;;;;;;;;;;;;346031;28;842;-77
2021/11/10 00:06:54;;;;;;;;;;;;;;;;;;344572;28;1640;-77
2021/11/10 00:07:05;;;;;;;;;;;;;;;;;;344684;28;803;-77
2021/11/10 00:07:15;;;;;;;;;;;;;;;;;;344556;28;985;-74
2021/11/10 00:07:26;;;;;;;;;;;;;;;;;;344626;28;981;-77
2021/11/10 00:07:36;;;;;;;;;;;;;;;;;;344616;28;898;-78
2021/11/10 00:07:47;;;;;;;;;;;;;;;;;;345812;28;977;-76
2021/11/10 00:07:57;;;;;;;;;;;;;;;;;;345900;28;977;-77
2021/11/10 00:08:08;;;;;;;;;;;;;;;;;;345826;28;1036;-75
2021/11/10 00:08:18;;;;;;;;;;;;;;;;;;345881;28;921;-77
2021/11/10 00:08:28;;;;;;;;;;;;;;;;;;345929;28;981;-76
2021/11/10 00:08:39;;;;;;;;;;;;;;;;;;345902;28;1083;-77
2021/11/10 00:08:52;;;;;;;;;;;;;;;;;;345902;28;946;-75
2021/11/10 00:09:11;;;;;;;;;;;;;;;;;;345967;28;810;-76
2021/11/10 00:09:27;;;;;;;;;;;;;;;;;;345850;28;1168;-78
2021/11/10 00:09:37;;;;;;;;;;;;;;;;;;345731;28;997;-77
2021/11/10 00:09:48;;;;;;;;;;;;;;;;;;344562;28;1027;-77
2021/11/10 00:09:58;;;;;;;;;;;;;;;;;;343189;28;1485;-77
2021/11/10 00:10:36;;;;;;;;;;;;;;;;;;341960;29;966;-76
2021/11/10 00:10:46;;;;;;;;;;;;;;;;;;341983;29;826;-74
2021/11/10 00:10:56;;;;;;;;;;;;;;;;;;341981;29;815;-76
2021/11/10 00:11:33;;;;;;;;;;;;;;;;;;343230;28;842;-76
2021/11/10 00:11:43;;;;;;;;;;;;;;;;;;342366;28;1466;-77
2021/11/10 00:11:59;;;;;;;;;;;;;;;;;;344574;28;890;-76
2021/11/10 00:12:10;;;;;;;;;;;;;;;;;;343238;28;1012;-76
2021/11/10 00:12:20;;;;;;;;;;;;;;;;;;344497;28;1319;-77
2021/11/10 00:12:31;;;;;;;;;;;;;;;;;;342828;28;1015;-78
2021/11/10 00:12:41;;;;;;;;;;;;;;;;;;343168;28;862;-76
2021/11/10 00:12:52;;;;;;;;;;;;;;;;;;341973;29;923;-76
2021/11/10 00:13:32;;;;;;;;;;;;;;;;;;341903;29;973;-77
2021/11/10 00:13:42;;;;;;;;;;;;;;;;;;342932;28;933;-76
2021/11/10 00:13:52;;;;;;;;;;;;;;;;;;343279;28;966;-75
2021/11/10 00:14:03;;;;;;;;;;;;;;;;;;343205;28;937;-77
2021/11/10 00:14:13;;;;;;;;;;;;;;;;;;343240;28;1044;-77
2021/11/10 00:14:24;;;;;;;;;;;;;;;;;;342045;28;1308;-75
2021/11/10 00:15:01;;;;;;;;;;;;;;;;;;344558;28;839;-75
2021/11/10 00:15:12;;;;;;;;;;;;;;;;;;344595;28;862;-76
2021/11/10 00:15:29;;;;;;;;;;;;;;;;;;344581;28;946;-73
2021/11/10 00:15:39;;;;;;;;;;;;;;;;;;344630;28;977;-77
2021/11/10 00:15:51;;;;;;;;;;;;;;;;;;343255;28;918;-76
2021/11/10 00:16:01;;;;;;;;;;;;;;;;;;343250;28;760;-77
2021/11/10 00:16:18;;;;;;;;;;;;;;;;;;343580;28;1973;-76
2021/11/10 00:16:28;;;;;;;;;;;;;;;;;;344639;28;850;-76
2021/11/10 00:16:39;;;;;;;;;;;;;;;;;;344590;28;921;-77
2021/11/10 00:16:52;;;;;;;;;;;;;;;;;;343160;28;1284;-76
2021/11/10 00:17:03;;;;;;;;;;;;;;;;;;343108;28;989;-76
2021/11/10 00:17:14;;;;;;;;;;;;;;;;;;343115;28;1145;-77
2021/11/10 00:17:24;;;;;;;;;;;;;;;;;;341806;29;1365;-76
2021/11/10 00:17:35;;;;;;;;;;;;;;;;;;341920;29;839;-75
2021/11/10 00:17:45;;;;;;;;;;;;;;;;;;341984;29;894;-76
2021/11/10 00:17:56;;;;;;;;;;;;;;;;;;340627;29;931;-77
2021/11/10 00:18:06;;;;;;;;;;;;;;;;;;340594;29;803;-76
2021/11/10 00:18:17;;;;;;;;;;;;;;;;;;340507;29;855;-77
2021/11/10 00:18:27;;;;;;;;;;;;;;;;;;340538;29;748;-75
2021/11/10 00:19:04;;;;;;;;;;;;;;;;;;340617;29;982;-76
2021/11/10 00:19:14;;;;;;;;;;;;;;;;;;343013;28;1220;-76
2021/11/10 00:19:50;;;;;;;;;;;;;;;;;;343686;28;934;-74
2021/11/10 00:20:01;;;;;;;;;;;;;;;;;;344594;28;1021;-78
2021/11/10 00:20:26;;;;;;;;;;;;;;;;;;344544;28;988;-76
2021/11/10 00:20:37;;;;;;;;;;;;;;;;;;344574;28;1002;-77
2021/11/10 00:20:47;;;;;;;;;;;;;;;;;;344577;28;914;-77
2021/11/10 00:20:58;;;;;;;;;;;;;;;;;;344662;28;894;-77
2021/11/10 00:21:08;;;;;;;;;;;;;;;;;;343125;28;1196;-77
2021/11/10 00:21:44;;;;;;;;;;;;;;;;;;344576;28;997;-77
2021/11/10 00:21:55;;;;;;;;;;;;;;;;;;343112;28;1303;-76
2021/11/10 00:22:05;;;;;;;;;;;;;;;;;;343269;28;1040;-76
2021/11/10 00:22:16;;;;;;;;;;;;;;;;;;342915;28;1065;-77
2021/11/10 00:22:26;;;;;;;;;;;;;;;;;;343229;28;921;-76
2021/11/10 00:22:36;;;;;;;;;;;;;;;;;;343311;28;815;-78
2021/11/10 00:22:47;;;;;;;;;;;;;;;;;;343245;28;910;-77
2021/11/10 00:22:57;;;;;;;;;;;;;;;;;;343302;28;819;-76
2021/11/10 00:23:07;;;;;;;;;;;;;;;;;;344342;28;846;-77
2021/11/10 00:23:18;;;;;;;;;;;;;;;;;;343052;28;961;-77
2021/11/10 00:23:28;;;;;;;;;;;;;;;;;;343149;28;1009;-77
2021/11/10 00:23:38;;;;;;;;;;;;;;;;;;343242;28;929;-76
2021/11/10 00:23:49;;;;;;;;;;;;;;;;;;343572;28;1053;-75
2021/11/10 00:23:59;;;;;;;;;;;;;;;;;;343149;28;1142;-76
2021/11/10 00:24:10;;;;;;;;;;;;;;;;;;341854;29;1462;-74
2021/11/10 00:24:20;;;;;;;;;;;;;;;;;;341837;29;1230;-74
2021/11/10 00:24:31;;;;;;;;;;;;;;;;;;341957;29;811;-76
2021/11/10 00:24:41;;;;;;;;;;;;;;;;;;341902;29;1014;-77
2021/11/10 00:24:52;;;;;;;;;;;;;;;;;;340351;29;931;-75
2021/11/10 00:25:03;;;;;;;;;;;;;;;;;;339063;29;1335;-77
2021/11/10 00:25:25;;;;;;;;;;;;;;;;;;339312;29;859;-76
2021/11/10 00:25:41;;;;;;;;;;;;;;;;;;339226;29;871;-76
2021/11/10 00:25:52;;;;;;;;;;;;;;;;;;339498;29;858;-76
2021/11/10 00:26:02;;;;;;;;;;;;;;;;;;340637;29;926;-76
2021/11/10 00:26:12;;;;;;;;;;;;;;;;;;341937;29;826;-76
2021/11/10 00:26:23;;;;;;;;;;;;;;;;;;340603;29;818;-77
2021/11/10 00:26:34;;;;;;;;;;;;;;;;;;339169;29;1287;-73
2021/11/10 00:26:44;;;;;;;;;;;;;;;;;;339582;29;847;-77
2021/11/10 00:26:55;;;;;;;;;;;;;;;;;;340864;28;966;-76
2021/11/10 00:27:05;;;;;;;;;;;;;;;;;;341861;29;1639;-77
2021/11/10 00:27:15;;;;;;;;;;;;;;;;;;341861;29;800;-76
2021/11/10 00:27:26;;;;;;;;;;;;;;;;;;340242;29;1348;-74
2021/11/10 00:27:37;;;;;;;;;;;;;;;;;;340594;29;957;-75
2021/11/10 00:27:48;;;;;;;;;;;;;;;;;;339223;29;1141;-77
2021/11/10 00:27:58;;;;;;;;;;;;;;;;;;339296;29;891;-76
2021/11/10 00:28:08;;;;;;;;;;;;;;;;;;339171;29;942;-78
2021/11/10 00:28:19;;;;;;;;;;;;;;;;;;340451;29;1329;-77
2021/11/10 00:28:29;;;;;;;;;;;;;;;;;;341805;29;922;-77
2021/11/10 00:28:40;;;;;;;;;;;;;;;;;;341866;29;1017;-76
2021/11/10 00:28:50;;;;;;;;;;;;;;;;;;340594;29;807;-77
2021/11/10 00:29:01;;;;;;;;;;;;;;;;;;340620;29;812;-77
2021/11/10 00:29:11;;;;;;;;;;;;;;;;;;341174;29;918;-76
2021/11/10 00:29:21;;;;;;;;;;;;;;;;;;341817;29;1026;-75
2021/11/10 00:29:48;;;;;;;;;;;;;;;;;;341934;29;933;-75
2021/11/10 00:29:58;;;;;;;;;;;;;;;;;;341802;29;1539;-79
2021/11/10 00:30:09;;;;;;;;;;;;;;;;;;341874;29;933;-78
2021/11/10 00:30:19;;;;;;;;;;;;;;;;;;341918;29;1060;-78
2021/11/10 00:30:29;;;;;;;;;;;;;;;;;;343029;28;918;-78
2021/11/10 00:30:40;;;;;;;;;;;;;;;;;;343237;28;910;-77
2021/11/10 00:30:50;;;;;;;;;;;;;;;;;;341810;29;1335;-78
2021/11/10 00:31:00;;;;;;;;;;;;;;;;;;340517;29;1158;-79
2021/11/10 00:31:11;;;;;;;;;;;;;;;;;;339182;29;1184;-78
2021/11/10 00:31:22;;;;;;;;;;;;;;;;;;339182;29;894;-77
2021/11/10 00:31:32;;;;;;;;;;;;;;;;;;339315;29;819;-77
2021/11/10 00:31:42;;;;;;;;;;;;;;;;;;339318;29;804;-75
2021/11/10 00:31:53;;;;;;;;;;;;;;;;;;340266;29;858;-77
2021/11/10 00:32:09;;;;;;;;;;;;;;;;;;341846;29;1375;-78
2021/11/10 00:32:46;;;;;;;;;;;;;;;;;;342475;28;831;-78
2021/11/10 00:32:56;;;;;;;;;;;;;;;;;;343804;28;851;-78
2021/11/10 00:33:06;;;;;;;;;;;;;;;;;;343741;28;1116;-78
2021/11/10 00:33:17;;;;;;;;;;;;;;;;;;344512;28;842;-77
2021/11/10 00:33:27;;;;;;;;;;;;;;;;;;344512;28;989;-77
2021/11/10 00:33:38;;;;;;;;;;;;;;;;;;344462;28;969;-76
2021/11/10 00:33:48;;;;;;;;;;;;;;;;;;344520;28;1005;-76
2021/11/10 00:34:25;;;;;;;;;;;;;;;;;;344522;28;1004;-78
2021/11/10 00:34:36;;;;;;;;;;;;;;;;;;344549;28;1040;-77
2021/11/10 00:34:46;;;;;;;;;;;;;;;;;;343170;28;807;-77
2021/11/10 00:34:56;;;;;;;;;;;;;;;;;;343249;28;867;-77
2021/11/10 00:35:07;;;;;;;;;;;;;;;;;;344470;28;1197;-78
2021/11/10 00:35:17;;;;;;;;;;;;;;;;;;344478;28;930;-77
2021/11/10 00:35:28;;;;;;;;;;;;;;;;;;343249;28;997;-76
2021/11/10 00:35:38;;;;;;;;;;;;;;;;;;343265;28;918;-77
2021/11/10 00:35:49;;;;;;;;;;;;;;;;;;343322;28;815;-78
2021/11/10 00:35:59;;;;;;;;;;;;;;;;;;343249;28;1358;-77
2021/11/10 00:36:10;;;;;;;;;;;;;;;;;;344162;28;1015;-77
2021/11/10 00:36:21;;;;;;;;;;;;;;;;;;343183;28;1958;-76
2021/11/10 00:36:31;;;;;;;;;;;;;;;;;;343229;28;885;-76
2021/11/10 00:36:42;;;;;;;;;;;;;;;;;;343278;28;1001;-78
2021/11/10 00:36:52;;;;;;;;;;;;;;;;;;342619;28;862;-76
2021/11/10 00:37:02;;;;;;;;;;;;;;;;;;341830;29;858;-76
2021/11/10 00:37:13;;;;;;;;;;;;;;;;;;341674;29;1002;-77
2021/11/10 00:37:23;;;;;;;;;;;;;;;;;;341867;29;800;-77
2021/11/10 00:37:34;;;;;;;;;;;;;;;;;;342525;28;945;-76
2021/11/10 00:37:44;;;;;;;;;;;;;;;;;;343208;28;926;-76
2021/11/10 00:37:55;;;;;;;;;;;;;;;;;;343146;28;851;-77
2021/11/10 00:38:05;;;;;;;;;;;;;;;;;;343267;28;803;-77
2021/11/10 00:38:16;;;;;;;;;;;;;;;;;;343886;28;788;-77
2021/11/10 00:38:26;;;;;;;;;;;;;;;;;;344599;28;1139;-77
2021/11/10 00:38:37;;;;;;;;;;;;;;;;;;344503;28;961;-77
2021/11/10 00:38:47;;;;;;;;;;;;;;;;;;344441;28;894;-78
2021/11/10 00:38:58;;;;;;;;;;;;;;;;;;344546;28;842;-76
2021/11/10 00:39:08;;;;;;;;;;;;;;;;;;345194;28;823;-76
2021/11/10 00:39:19;;;;;;;;;;;;;;;;;;343005;28;1321;-75
2021/11/10 00:39:29;;;;;;;;;;;;;;;;;;341547;29;1162;-76
2021/11/10 00:39:39;;;;;;;;;;;;;;;;;;340610;29;776;-78
2021/11/10 00:39:50;;;;;;;;;;;;;;;;;;339290;29;1005;-76
2021/11/10 00:40:00;;;;;;;;;;;;;;;;;;340358;29;1001;-77
2021/11/10 00:40:11;;;;;;;;;;;;;;;;;;340617;29;926;-74
2021/11/10 00:40:21;;;;;;;;;;;;;;;;;;340567;29;807;-75
2021/11/10 00:40:38;;;;;;;;;;;;;;;;;;340423;29;1614;-73
2021/11/10 00:41:14;;;;;;;;;;;;;;;;;;341877;29;1004;-78
2021/11/10 00:41:25;;;;;;;;;;;;;;;;;;341838;29;804;-78
2021/11/10 00:41:35;;;;;;;;;;;;;;;;;;341849;29;835;-77
2021/11/10 00:41:45;;;;;;;;;;;;;;;;;;342508;28;902;-76
2021/11/10 00:42:01;;;;;;;;;;;;;;;;;;343195;28;993;-76
2021/11/10 00:42:12;;;;;;;;;;;;;;;;;;343252;28;842;-77
2021/11/10 00:42:22;;;;;;;;;;;;;;;;;;342019;28;846;-77
2021/11/10 00:42:32;;;;;;;;;;;;;;;;;;343165;28;851;-77
2021/11/10 00:42:43;;;;;;;;;;;;;;;;;;343613;28;974;-77
2021/11/10 00:42:53;;;;;;;;;;;;;;;;;;344565;28;854;-77
2021/11/10 00:43:03;;;;;;;;;;;;;;;;;;344536;28;794;-76
2021/11/10 00:43:14;;;;;;;;;;;;;;;;;;344528;28;909;-76
2021/11/10 00:43:24;;;;;;;;;;;;;;;;;;343185;28;1025;-77
2021/11/10 00:43:34;;;;;;;;;;;;;;;;;;343227;28;905;-76
2021/11/10 00:43:45;;;;;;;;;;;;;;;;;;343028;28;815;-77
2021/11/10 00:44:00;;;;;;;;;;;;;;;;;;343172;28;787;-77
2021/11/10 00:44:10;;;;;;;;;;;;;;;;;;343205;28;993;-77
2021/11/10 00:44:20;;;;;;;;;;;;;;;;;;344218;28;958;-77
2021/11/10 00:44:31;;;;;;;;;;;;;;;;;;343050;28;1461;-78
2021/11/10 00:44:41;;;;;;;;;;;;;;;;;;343209;28;966;-77
2021/11/10 00:44:51;;;;;;;;;;;;;;;;;;343245;28;977;-76
2021/11/10 00:45:02;;;;;;;;;;;;;;;;;;342816;28;1046;-76
2021/11/10 00:45:13;;;;;;;;;;;;;;;;;;343180;28;926;-76
2021/11/10 00:45:23;;;;;;;;;;;;;;;;;;343133;28;946;-78
2021/11/10 00:45:33;;;;;;;;;;;;;;;;;;342957;28;995;-76
2021/11/10 00:45:44;;;;;;;;;;;;;;;;;;341766;29;1291;-77
2021/11/10 00:45:54;;;;;;;;;;;;;;;;;;342840;28;756;-77
2021/11/10 00:46:05;;;;;;;;;;;;;;;;;;343171;28;985;-77
2021/11/10 00:46:15;;;;;;;;;;;;;;;;;;343170;28;1009;-77
2021/11/10 00:46:27;;;;;;;;;;;;;;;;;;343826;28;977;-77
2021/11/10 00:46:37;;;;;;;;;;;;;;;;;;343120;28;862;-76
2021/11/10 00:46:47;;;;;;;;;;;;;;;;;;341815;29;1341;-77
2021/11/10 00:46:58;;;;;;;;;;;;;;;;;;340638;29;844;-78
2021/11/10 00:47:08;;;;;;;;;;;;;;;;;;340603;29;934;-77
2021/11/10 00:47:18;;;;;;;;;;;;;;;;;;340474;29;966;-78
2021/11/10 00:47:29;;;;;;;;;;;;;;;;;;340566;29;962;-77
2021/11/10 00:47:39;;;;;;;;;;;;;;;;;;341180;29;863;-77
2021/11/10 00:47:50;;;;;;;;;;;;;;;;;;341899;29;901;-77
2021/11/10 00:48:00;;;;;;;;;;;;;;;;;;341948;29;918;-78
2021/11/10 00:48:10;;;;;;;;;;;;;;;;;;341818;29;981;-77
2021/11/10 00:48:21;;;;;;;;;;;;;;;;;;341912;29;982;-76
2021/11/10 00:48:31;;;;;;;;;;;;;;;;;;342301;28;1017;-77
2021/11/10 00:48:42;;;;;;;;;;;;;;;;;;343319;28;944;-77
2021/11/10 00:48:52;;;;;;;;;;;;;;;;;;344998;28;930;-77
2021/11/10 00:49:03;;;;;;;;;;;;;;;;;;344495;28;779;-77
2021/11/10 00:49:13;;;;;;;;;;;;;;;;;;344539;28;952;-78
2021/11/10 00:49:23;;;;;;;;;;;;;;;;;;343142;28;922;-77
2021/11/10 00:49:59;;;;;;;;;;;;;;;;;;343113;28;1267;-78
2021/11/10 00:50:10;;;;;;;;;;;;;;;;;;343204;28;926;-78
2021/11/10 00:50:20;;;;;;;;;;;;;;;;;;343127;28;918;-76
2021/11/10 00:50:31;;;;;;;;;;;;;;;;;;343194;28;1091;-77
2021/11/10 00:51:23;;;;;;;;;;;;;;;;;;344212;28;986;-77
2021/11/10 00:51:33;;;;;;;;;;;;;;;;;;344554;28;973;-77
2021/11/10 00:51:44;;;;;;;;;;;;;;;;;;344510;28;961;-77
2021/11/10 00:51:54;;;;;;;;;;;;;;;;;;344537;28;831;-77
2021/11/10 00:52:05;;;;;;;;;;;;;;;;;;343193;28;819;-76
2021/11/10 00:52:15;;;;;;;;;;;;;;;;;;343238;28;988;-78
2021/11/10 00:52:26;;;;;;;;;;;;;;;;;;343252;28;858;-76
2021/11/10 00:52:36;;;;;;;;;;;;;;;;;;343528;28;823;-77
2021/11/10 00:52:46;;;;;;;;;;;;;;;;;;341749;29;1161;-76
2021/11/10 00:53:23;;;;;;;;;;;;;;;;;;341815;29;961;-78
2021/11/10 00:53:33;;;;;;;;;;;;;;;;;;340610;29;926;-77
2021/11/10 00:53:43;;;;;;;;;;;;;;;;;;340558;29;926;-78
2021/11/10 00:53:54;;;;;;;;;;;;;;;;;;340454;29;1043;-78
2021/11/10 00:54:04;;;;;;;;;;;;;;;;;;341564;29;978;-78
2021/11/10 00:54:15;;;;;;;;;;;;;;;;;;341857;29;855;-77
2021/11/10 00:54:25;;;;;;;;;;;;;;;;;;341825;29;1561;-77
2021/11/10 00:54:36;;;;;;;;;;;;;;;;;;340577;29;831;-77
2021/11/10 00:54:46;;;;;;;;;;;;;;;;;;341621;29;823;-76
2021/11/10 00:55:03;;;;;;;;;;;;;;;;;;341882;29;862;-77
2021/11/10 00:55:13;;;;;;;;;;;;;;;;;;341849;29;863;-78
2021/11/10 00:55:24;;;;;;;;;;;;;;;;;;341749;29;1206;-77
2021/11/10 00:55:35;;;;;;;;;;;;;;;;;;343256;28;820;-77
2021/11/10 00:55:45;;;;;;;;;;;;;;;;;;341871;29;1041;-77
2021/11/10 00:55:56;;;;;;;;;;;;;;;;;;341960;29;890;-77
2021/11/10 00:56:06;;;;;;;;;;;;;;;;;;341864;29;994;-78
2021/11/10 00:56:17;;;;;;;;;;;;;;;;;;340417;29;1963;-78
2021/11/10 00:56:28;;;;;;;;;;;;;;;;;;340669;29;851;-75
2021/11/10 00:57:04;;;;;;;;;;;;;;;;;;341789;29;946;-77
2021/11/10 00:57:14;;;;;;;;;;;;;;;;;;341756;29;949;-76
2021/11/10 00:57:25;;;;;;;;;;;;;;;;;;341862;29;819;-78
2021/11/10 00:57:35;;;;;;;;;;;;;;;;;;341915;29;831;-78
2021/11/10 00:57:46;;;;;;;;;;;;;;;;;;344419;28;1476;-78
2021/11/10 00:57:56;;;;;;;;;;;;;;;;;;344147;28;1198;-77
2021/11/10 00:58:06;;;;;;;;;;;;;;;;;;344493;28;1440;-77
2021/11/10 00:58:17;;;;;;;;;;;;;;;;;;344542;28;965;-78
2021/11/10 00:58:33;;;;;;;;;;;;;;;;;;344583;28;867;-78
2021/11/10 00:58:43;;;;;;;;;;;;;;;;;;344577;28;950;-78
2021/11/10 00:59:20;;;;;;;;;;;;;;;;;;344330;28;914;-78
2021/11/10 00:59:56;;;;;;;;;;;;;;;;;;343276;28;1380;-78
2021/11/10 01:00:07;;;;;;;;;;;;;;;;;;344383;28;906;-76
2021/11/10 01:00:18;;;;;;;;;;;;;;;;;;344562;28;780;-78
2021/11/10 01:00:29;;;;;;;;;;;;;;;;;;344539;28;823;-78
2021/11/10 01:00:40;;;;;;;;;;;;;;;;;;344566;28;914;-77
2021/11/10 01:00:50;;;;;;;;;;;;;;;;;;344558;28;934;-77
2021/11/10 01:01:01;;;;;;;;;;;;;;;;;;344551;28;1060;-78
2021/11/10 01:01:12;;;;;;;;;;;;;;;;;;344551;28;926;-77
2021/11/10 01:01:22;;;;;;;;;;;;;;;;;;343068;28;1370;-78
2021/11/10 01:01:32;;;;;;;;;;;;;;;;;;344405;28;977;-78
2021/11/10 01:01:48;;;;;;;;;;;;;;;;;;344570;28;819;-78
2021/11/10 01:01:59;;;;;;;;;;;;;;;;;;344451;28;1184;-76
2021/11/10 01:02:09;;;;;;;;;;;;;;;;;;344589;28;866;-78
2021/11/10 01:02:46;;;;;;;;;;;;;;;;;;344575;28;859;-78
2021/11/10 01:02:56;;;;;;;;;;;;;;;;;;344580;28;830;-78
2021/11/10 01:03:07;;;;;;;;;;;;;;;;;;344495;28;949;-77
2021/11/10 01:03:19;;;;;;;;;;;;;;;;;;343152;28;1017;-78
2021/11/10 01:03:29;;;;;;;;;;;;;;;;;;343206;28;863;-78
2021/11/10 01:03:46;;;;;;;;;;;;;;;;;;343112;28;1053;-78
2021/11/10 01:03:57;;;;;;;;;;;;;;;;;;342722;28;916;-78
2021/11/10 01:04:07;;;;;;;;;;;;;;;;;;341647;29;1239;-78
2021/11/10 01:04:18;;;;;;;;;;;;;;;;;;341695;29;1277;-77
2021/11/10 01:04:28;;;;;;;;;;;;;;;;;;341743;29;1706;-78
2021/11/10 01:04:38;;;;;;;;;;;;;;;;;;341842;29;970;-78
2021/11/10 01:04:49;;;;;;;;;;;;;;;;;;341929;29;815;-78
2021/11/10 01:04:59;;;;;;;;;;;;;;;;;;341819;29;934;-76
2021/11/10 01:05:11;;;;;;;;;;;;;;;;;;342111;28;795;-78
2021/11/10 01:05:27;;;;;;;;;;;;;;;;;;343290;28;807;-78
2021/11/10 01:05:39;;;;;;;;;;;;;;;;;;343218;28;992;-78
2021/11/10 01:05:50;;;;;;;;;;;;;;;;;;343429;28;981;-77
2021/11/10 01:06:01;;;;;;;;;;;;;;;;;;344513;28;985;-78
2021/11/10 01:06:27;;;;;;;;;;;;;;;;;;344484;28;973;-77
2021/11/10 01:06:37;;;;;;;;;;;;;;;;;;344598;28;1073;-77
2021/11/10 01:06:47;;;;;;;;;;;;;;;;;;344376;28;1576;-77
2021/11/10 01:07:01;;;;;;;;;;;;;;;;;;344546;28;1275;-78
2021/11/10 01:07:11;;;;;;;;;;;;;;;;;;344521;28;992;-77
2021/11/10 01:07:22;;;;;;;;;;;;;;;;;;344436;28;1020;-77
2021/11/10 01:07:41;;;;;;;;;;;;;;;;;;343025;28;799;-78
2021/11/10 01:07:51;;;;;;;;;;;;;;;;;;343001;28;834;-78
2021/11/10 01:08:03;;;;;;;;;;;;;;;;;;343008;28;886;-78
2021/11/10 01:08:39;;;;;;;;;;;;;;;;;;343182;28;986;-77
2021/11/10 01:08:52;;;;;;;;;;;;;;;;;;343233;28;930;-77
2021/11/10 01:09:04;;;;;;;;;;;;;;;;;;344498;28;890;-76
2021/11/10 01:09:18;;;;;;;;;;;;;;;;;;342916;28;1456;-78
2021/11/10 01:09:29;;;;;;;;;;;;;;;;;;343603;28;898;-76
2021/11/10 01:10:13;;;;;;;;;;;;;;;;;;343022;28;1259;-77
2021/11/10 01:10:26;;;;;;;;;;;;;;;;;;343591;28;1148;-77
2021/11/10 01:10:38;;;;;;;;;;;;;;;;;;343101;28;1287;-76
2021/11/10 01:10:49;;;;;;;;;;;;;;;;;;343217;28;814;-77
2021/11/10 01:10:59;;;;;;;;;;;;;;;;;;342849;28;986;-78
2021/11/10 01:11:10;;;;;;;;;;;;;;;;;;343594;28;791;-78
2021/11/10 01:11:20;;;;;;;;;;;;;;;;;;344394;28;977;-78
2021/11/10 01:11:31;;;;;;;;;;;;;;;;;;344538;28;835;-77
2021/11/10 01:12:08;;;;;;;;;;;;;;;;;;344939;28;980;-77
2021/11/10 01:12:19;;;;;;;;;;;;;;;;;;345845;28;1005;-78
2021/11/10 01:12:29;;;;;;;;;;;;;;;;;;344464;28;1145;-78
2021/11/10 01:12:40;;;;;;;;;;;;;;;;;;344585;28;783;-76
2021/11/10 01:12:50;;;;;;;;;;;;;;;;;;344556;28;993;-76
2021/11/10 01:13:01;;;;;;;;;;;;;;;;;;344553;28;736;-77
2021/11/10 01:13:11;;;;;;;;;;;;;;;;;;344544;28;1013;-78
2021/11/10 01:13:49;;;;;;;;;;;;;;;;;;344456;28;973;-76
2021/11/10 01:13:59;;;;;;;;;;;;;;;;;;344540;28;877;-77
2021/11/10 01:14:09;;;;;;;;;;;;;;;;;;344556;28;807;-77
2021/11/10 01:14:20;;;;;;;;;;;;;;;;;;344477;28;894;-76
2021/11/10 01:14:30;;;;;;;;;;;;;;;;;;344341;28;989;-77
2021/11/10 01:14:42;;;;;;;;;;;;;;;;;;345771;28;977;-77
2021/11/10 01:14:53;;;;;;;;;;;;;;;;;;345903;28;964;-75
2021/11/10 01:15:05;;;;;;;;;;;;;;;;;;345909;28;834;-77
2021/11/10 01:15:15;;;;;;;;;;;;;;;;;;344384;28;1380;-77
2021/11/10 01:15:26;;;;;;;;;;;;;;;;;;343251;28;795;-78
2021/11/10 01:15:39;;;;;;;;;;;;;;;;;;343208;28;993;-78
2021/11/10 01:15:49;;;;;;;;;;;;;;;;;;343055;28;1146;-78
2021/11/10 01:16:00;;;;;;;;;;;;;;;;;;341857;29;950;-78
2021/11/10 01:16:10;;;;;;;;;;;;;;;;;;341433;29;1237;-78
2021/11/10 01:16:21;;;;;;;;;;;;;;;;;;341820;29;1903;-77
2021/11/10 01:16:31;;;;;;;;;;;;;;;;;;340534;29;859;-77
2021/11/10 01:16:41;;;;;;;;;;;;;;;;;;340458;29;1197;-77
2021/11/10 01:16:52;;;;;;;;;;;;;;;;;;339143;29;930;-77
2021/11/10 01:17:03;;;;;;;;;;;;;;;;;;339134;29;970;-78
2021/11/10 01:17:13;;;;;;;;;;;;;;;;;;340091;29;978;-78
2021/11/10 01:17:49;;;;;;;;;;;;;;;;;;339228;29;792;-77
2021/11/10 01:18:00;;;;;;;;;;;;;;;;;;339254;29;839;-78
2021/11/10 01:18:10;;;;;;;;;;;;;;;;;;341564;29;796;-78
2021/11/10 01:18:21;;;;;;;;;;;;;;;;;;341885;29;847;-78
2021/11/10 01:18:31;;;;;;;;;;;;;;;;;;343111;28;891;-78
2021/11/10 01:18:41;;;;;;;;;;;;;;;;;;343091;28;804;-77
2021/11/10 01:18:52;;;;;;;;;;;;;;;;;;343174;28;831;-78
2021/11/10 01:19:02;;;;;;;;;;;;;;;;;;343150;28;942;-77
2021/11/10 01:19:13;;;;;;;;;;;;;;;;;;341685;28;1284;-77
2021/11/10 01:19:23;;;;;;;;;;;;;;;;;;342978;28;882;-77
2021/11/10 01:19:34;;;;;;;;;;;;;;;;;;341670;29;1423;-77
2021/11/10 01:19:44;;;;;;;;;;;;;;;;;;341765;29;930;-78
2021/11/10 01:19:54;;;;;;;;;;;;;;;;;;341705;29;1413;-78
2021/11/10 01:20:12;;;;;;;;;;;;;;;;;;343042;28;1484;-77
2021/11/10 01:20:22;;;;;;;;;;;;;;;;;;344228;28;1040;-77
2021/11/10 01:20:33;;;;;;;;;;;;;;;;;;344535;28;1040;-77
2021/11/10 01:20:43;;;;;;;;;;;;;;;;;;344587;28;926;-77
2021/11/10 01:20:54;;;;;;;;;;;;;;;;;;343186;28;933;-77
2021/11/10 01:21:05;;;;;;;;;;;;;;;;;;341825;29;546;-78
2021/11/10 01:21:15;;;;;;;;;;;;;;;;;;341741;29;942;-77
2021/11/10 01:21:26;;;;;;;;;;;;;;;;;;341927;28;898;-77
2021/11/10 01:21:36;;;;;;;;;;;;;;;;;;343186;28;842;-77
2021/11/10 01:21:47;;;;;;;;;;;;;;;;;;343311;28;992;-77
2021/11/10 01:22:23;;;;;;;;;;;;;;;;;;345850;28;924;-77
2021/11/10 01:22:45;;;;;;;;;;;;;;;;;;345900;28;944;-77
2021/11/10 01:23:02;;;;;;;;;;;;;;;;;;345962;28;995;-77
2021/11/10 01:23:12;;;;;;;;;;;;;;;;;;345959;28;876;-77
2021/11/10 01:23:23;;;;;;;;;;;;;;;;;;345274;28;1226;-77
2021/11/10 01:23:33;;;;;;;;;;;;;;;;;;345819;28;991;-76
2021/11/10 01:23:44;;;;;;;;;;;;;;;;;;345838;28;869;-77
2021/11/10 01:23:54;;;;;;;;;;;;;;;;;;345876;28;845;-77
2021/11/10 01:24:04;;;;;;;;;;;;;;;;;;345884;28;807;-76
2021/11/10 01:24:30;;;;;;;;;;;;;;;;;;345820;28;929;-77
2021/11/10 01:24:41;;;;;;;;;;;;;;;;;;345769;28;810;-76
2021/11/10 01:24:51;;;;;;;;;;;;;;;;;;345829;28;846;-77
2021/11/10 01:25:04;;;;;;;;;;;;;;;;;;345874;28;885;-78
2021/11/10 01:25:14;;;;;;;;;;;;;;;;;;345500;28;988;-77
2021/11/10 01:25:25;;;;;;;;;;;;;;;;;;345827;28;806;-76
2021/11/10 01:25:36;;;;;;;;;;;;;;;;;;345840;28;937;-79
2021/11/10 01:25:53;;;;;;;;;;;;;;;;;;345804;28;921;-78
2021/11/10 01:26:03;;;;;;;;;;;;;;;;;;345895;28;526;-78
2021/11/10 01:26:14;;;;;;;;;;;;;;;;;;344407;28;1307;-78
2021/11/10 01:26:50;;;;;;;;;;;;;;;;;;344523;28;826;-78
2021/11/10 01:27:16;;;;;;;;;;;;;;;;;;344280;28;956;-77
2021/11/10 01:27:26;;;;;;;;;;;;;;;;;;345855;28;929;-76
2021/11/10 01:27:37;;;;;;;;;;;;;;;;;;345863;28;850;-78
2021/11/10 01:27:47;;;;;;;;;;;;;;;;;;345918;28;802;-77
2021/11/10 01:27:57;;;;;;;;;;;;;;;;;;345869;28;846;-78
2021/11/10 01:28:09;;;;;;;;;;;;;;;;;;346178;28;984;-78
2021/11/10 01:28:19;;;;;;;;;;;;;;;;;;345786;28;1209;-78
2021/11/10 01:28:29;;;;;;;;;;;;;;;;;;344424;28;1287;-77
2021/11/10 01:28:40;;;;;;;;;;;;;;;;;;344488;28;977;-78
2021/11/10 01:28:50;;;;;;;;;;;;;;;;;;344497;28;807;-78
2021/11/10 01:29:26;;;;;;;;;;;;;;;;;;343155;28;871;-77
2021/11/10 01:29:37;;;;;;;;;;;;;;;;;;342928;28;1295;-77
2021/11/10 01:29:47;;;;;;;;;;;;;;;;;;343070;28;818;-76
2021/11/10 01:29:58;;;;;;;;;;;;;;;;;;342903;28;973;-77
2021/11/10 01:30:09;;;;;;;;;;;;;;;;;;343224;28;905;-78
2021/11/10 01:30:20;;;;;;;;;;;;;;;;;;343066;28;926;-78
2021/11/10 01:30:30;;;;;;;;;;;;;;;;;;343185;28;843;-77
2021/11/10 01:30:41;;;;;;;;;;;;;;;;;;343129;28;823;-78
2021/11/10 01:31:09;;;;;;;;;;;;;;;;;;343168;28;980;-78
2021/11/10 01:31:20;;;;;;;;;;;;;;;;;;343078;28;1009;-77
2021/11/10 01:31:30;;;;;;;;;;;;;;;;;;343790;28;992;-78